sensor_id;sensor_type;location;lat;lon;timestamp;pressure;altitude;pressure_sealevel;temperature;humidity
57056;BME280;42945;51.718;5.324;2023-02-19T00:03:09;101606.00;;;8.04;100.00
57056;BME280;42945;51.718;5.324;2023-02-19T00:08:57;101632.16;;;8.12;100.00
57056;BME280;42945;51.718;5.324;2023-02-19T00:14:46;101627.59;;;8.17;100.00
57056;BME280;42945;51.718;5.324;2023-02-19T00:20:35;101632.28;;;8.08;100.00
57056;BME280;42945;51.718;5.324;2023-02-19T00:26:24;101516.56;;;7.43;100.00
57056;BME280;42945;51.718;5.324;2023-02-19T00:32:13;101701.59;;;8.69;100.00
57056;BME280;42945;51.718;5.324;2023-02-19T00:38:01;101674.56;;;8.08;100.00
57056;BME280;42945;51.718;5.324;2023-02-19T00:49:43;101510.50;;;7.41;100.00
57056;BME280;42945;51.718;5.324;2023-02-19T00:55:31;101667.19;;;7.92;100.00
57056;BME280;42945;51.718;5.324;2023-02-19T01:05:15;101648.59;;;7.95;100.00
57056;BME280;42945;51.718;5.324;2023-02-19T01:11:04;101652.16;;;7.94;100.00
57056;BME280;42945;51.718;5.324;2023-02-19T01:16:53;101466.47;;;6.61;100.00
57056;BME280;42945;51.718;5.324;2023-02-19T01:22:42;101693.66;;;7.90;100.00
57056;BME280;42945;51.718;5.324;2023-02-19T01:28:30;101537.50;;;7.21;100.00
57056;BME280;42945;51.718;5.324;2023-02-19T01:34:19;101717.00;;;8.02;100.00
57056;BME280;42945;51.718;5.324;2023-02-19T01:40:08;101682.78;;;7.99;100.00
57056;BME280;42945;51.718;5.324;2023-02-19T01:45:57;101725.88;;;8.01;100.00
57056;BME280;42945;51.718;5.324;2023-02-19T01:52:11;101675.94;;;7.94;100.00
57056;BME280;42945;51.718;5.324;2023-02-19T01:58:00;101674.75;;;7.76;100.00
57056;BME280;42945;51.718;5.324;2023-02-19T02:07:51;101552.47;;;7.20;100.00
57056;BME280;42945;51.718;5.324;2023-02-19T02:13:58;101643.88;;;7.78;100.00
57056;BME280;42945;51.718;5.324;2023-02-19T02:26:18;101681.31;;;7.91;100.00
57056;BME280;42945;51.718;5.324;2023-02-19T02:32:15;101671.06;;;7.81;100.00
57056;BME280;42945;51.718;5.324;2023-02-19T02:38:09;101665.25;;;7.70;100.00
57056;BME280;42945;51.718;5.324;2023-02-19T02:43:58;101784.63;;;8.36;100.00
57056;BME280;42945;51.718;5.324;2023-02-19T02:49:46;101615.84;;;7.74;100.00
57056;BME280;42945;51.718;5.324;2023-02-19T02:55:52;101679.13;;;7.77;100.00
57056;BME280;42945;51.718;5.324;2023-02-19T03:02:02;101714.38;;;7.76;100.00
57056;BME280;42945;51.718;5.324;2023-02-19T03:08:13;101703.00;;;7.74;100.00
57056;BME280;42945;51.718;5.324;2023-02-19T03:20:15;101601.41;;;7.02;100.00
57056;BME280;42945;51.718;5.324;2023-02-19T03:26:05;101696.78;;;7.75;100.00
57056;BME280;42945;51.718;5.324;2023-02-19T03:31:57;101778.34;;;8.39;100.00
57056;BME280;42945;51.718;5.324;2023-02-19T03:38:08;101704.38;;;7.85;100.00
57056;BME280;42945;51.718;5.324;2023-02-19T03:50:21;101737.00;;;7.83;100.00
57056;BME280;42945;51.718;5.324;2023-02-19T03:56:15;101627.00;;;6.99;100.00
57056;BME280;42945;51.718;5.324;2023-02-19T04:02:13;101613.91;;;6.96;100.00
57056;BME280;42945;51.718;5.324;2023-02-19T04:08:18;101753.31;;;7.67;100.00
57056;BME280;42945;51.718;5.324;2023-02-19T04:14:15;101728.56;;;7.43;100.00
57056;BME280;42945;51.718;5.324;2023-02-19T04:20:07;101761.56;;;7.58;100.00
57056;BME280;42945;51.718;5.324;2023-02-19T04:25:58;101796.56;;;7.63;100.00
57056;BME280;42945;51.718;5.324;2023-02-19T04:31:47;101790.59;;;7.58;100.00
57056;BME280;42945;51.718;5.324;2023-02-19T04:37:35;101788.19;;;7.51;100.00
57056;BME280;42945;51.718;5.324;2023-02-19T04:43:24;101699.94;;;7.00;100.00
57056;BME280;42945;51.718;5.324;2023-02-19T04:49:12;101825.91;;;7.54;100.00
57056;BME280;42945;51.718;5.324;2023-02-19T04:55:00;101841.19;;;7.43;100.00
57056;BME280;42945;51.718;5.324;2023-02-19T05:00:51;101855.00;;;7.53;100.00
57056;BME280;42945;51.718;5.324;2023-02-19T05:10:56;101837.63;;;7.44;100.00
57056;BME280;42945;51.718;5.324;2023-02-19T05:16:45;101874.41;;;7.50;100.00
57056;BME280;42945;51.718;5.324;2023-02-19T05:22:33;101867.66;;;7.40;100.00
57056;BME280;42945;51.718;5.324;2023-02-19T05:28:22;101740.22;;;6.74;100.00
57056;BME280;42945;51.718;5.324;2023-02-19T05:34:15;101895.31;;;7.58;100.00
57056;BME280;42945;51.718;5.324;2023-02-19T05:40:03;101859.00;;;7.35;100.00
57056;BME280;42945;51.718;5.324;2023-02-19T05:45:52;101865.19;;;7.34;100.00
57056;BME280;42945;51.718;5.324;2023-02-19T05:51:40;101759.03;;;6.61;100.00
57056;BME280;42945;51.718;5.324;2023-02-19T05:57:27;101868.28;;;7.17;100.00
57056;BME280;42945;51.718;5.324;2023-02-19T06:03:14;101866.44;;;7.20;100.00
57056;BME280;42945;51.718;5.324;2023-02-19T06:13:05;101738.16;;;6.52;100.00
57056;BME280;42945;51.718;5.324;2023-02-19T06:18:52;101948.22;;;7.20;100.00
57056;BME280;42945;51.718;5.324;2023-02-19T06:24:42;101960.19;;;7.34;100.00
57056;BME280;42945;51.718;5.324;2023-02-19T06:30:30;101953.16;;;7.33;100.00
57056;BME280;42945;51.718;5.324;2023-02-19T06:36:20;101949.09;;;7.21;100.00
57056;BME280;42945;51.718;5.324;2023-02-19T06:42:09;101905.53;;;7.39;100.00
57056;BME280;42945;51.718;5.324;2023-02-19T06:47:56;101919.59;;;7.39;100.00
57056;BME280;42945;51.718;5.324;2023-02-19T06:53:45;101969.16;;;7.26;100.00
57056;BME280;42945;51.718;5.324;2023-02-19T06:59:34;101975.22;;;7.32;100.00
57056;BME280;42945;51.718;5.324;2023-02-19T07:05:23;101948.34;;;7.16;100.00
57056;BME280;42945;51.718;5.324;2023-02-19T07:15:08;102080.34;;;7.83;100.00
57056;BME280;42945;51.718;5.324;2023-02-19T07:26:51;102030.22;;;7.11;100.00
57056;BME280;42945;51.718;5.324;2023-02-19T07:32:41;102000.50;;;7.04;100.00
57056;BME280;42945;51.718;5.324;2023-02-19T07:38:31;102013.69;;;7.04;100.00
57056;BME280;42945;51.718;5.324;2023-02-19T07:44:19;102020.03;;;6.96;100.00
57056;BME280;42945;51.718;5.324;2023-02-19T07:50:07;102082.06;;;7.14;100.00
57056;BME280;42945;51.718;5.324;2023-02-19T07:56:00;102008.13;;;7.15;100.00
57056;BME280;42945;51.718;5.324;2023-02-19T08:01:49;101943.47;;;6.63;100.00
57056;BME280;42945;51.718;5.324;2023-02-19T08:07:57;102183.13;;;7.92;100.00
57056;BME280;42945;51.718;5.324;2023-02-19T08:17:47;102281.84;;;8.61;100.00
57056;BME280;42945;51.718;5.324;2023-02-19T08:23:34;102092.03;;;7.38;100.00
57056;BME280;42945;51.718;5.324;2023-02-19T08:29:23;102059.16;;;7.16;100.00
57056;BME280;42945;51.718;5.324;2023-02-19T08:35:12;102174.75;;;7.75;100.00
57056;BME280;42945;51.718;5.324;2023-02-19T08:40:59;102085.22;;;7.29;100.00
57056;BME280;42945;51.718;5.324;2023-02-19T08:46:47;102114.41;;;7.22;100.00
57056;BME280;42945;51.718;5.324;2023-02-19T08:52:34;101990.44;;;6.45;100.00
57056;BME280;42945;51.718;5.324;2023-02-19T08:58:22;102151.34;;;7.23;100.00
57056;BME280;42945;51.718;5.324;2023-02-19T09:04:12;102134.44;;;7.30;100.00
57056;BME280;42945;51.718;5.324;2023-02-19T09:10:00;102020.56;;;6.73;100.00
57056;BME280;42945;51.718;5.324;2023-02-19T09:19:42;102092.81;;;7.42;100.00
57056;BME280;42945;51.718;5.324;2023-02-19T09:25:30;102033.47;;;6.86;100.00
57056;BME280;42945;51.718;5.324;2023-02-19T09:31:18;102202.34;;;7.99;100.00
57056;BME280;42945;51.718;5.324;2023-02-19T09:37:06;101893.84;;;6.44;100.00
57056;BME280;42945;51.718;5.324;2023-02-19T09:42:54;101988.31;;;7.00;100.00
57056;BME280;42945;51.718;5.324;2023-02-19T09:48:42;102048.16;;;7.33;100.00
57056;BME280;42945;51.718;5.324;2023-02-19T09:54:32;102147.69;;;8.01;100.00
57056;BME280;42945;51.718;5.324;2023-02-19T10:00:23;102174.59;;;8.17;100.00
57056;BME280;42945;51.718;5.324;2023-02-19T10:12:15;102149.84;;;8.19;100.00
57056;BME280;42945;51.718;5.324;2023-02-19T10:22:07;102213.50;;;8.46;100.00
57056;BME280;42945;51.718;5.324;2023-02-19T10:27:59;102185.44;;;8.39;100.00
57056;BME280;42945;51.718;5.324;2023-02-19T10:33:56;102180.31;;;8.33;100.00
57056;BME280;42945;51.718;5.324;2023-02-19T10:39:48;102184.91;;;8.26;100.00
57056;BME280;42945;51.718;5.324;2023-02-19T10:45:54;102146.81;;;8.00;100.00
57056;BME280;42945;51.718;5.324;2023-02-19T10:51:43;102151.25;;;7.98;100.00
57056;BME280;42945;51.718;5.324;2023-02-19T10:57:30;102221.06;;;8.58;100.00
57056;BME280;42945;51.718;5.324;2023-02-19T11:03:21;102206.53;;;8.75;100.00
57056;BME280;42945;51.718;5.324;2023-02-19T11:09:33;102218.81;;;8.44;100.00
57056;BME280;42945;51.718;5.324;2023-02-19T11:25:20;102102.81;;;7.99;100.00
57056;BME280;42945;51.718;5.324;2023-02-19T11:31:30;102092.56;;;8.20;100.00
57056;BME280;42945;51.718;5.324;2023-02-19T11:37:20;102187.31;;;8.68;100.00
57056;BME280;42945;51.718;5.324;2023-02-19T11:55:49;102196.84;;;8.41;100.00
57056;BME280;42945;51.718;5.324;2023-02-19T12:20:46;102175.22;;;8.59;100.00
57056;BME280;42945;51.718;5.324;2023-02-19T12:38:44;101934.59;;;7.03;100.00
57056;BME280;42945;51.718;5.324;2023-02-19T12:44:51;102186.00;;;8.17;100.00
57056;BME280;42945;51.718;5.324;2023-02-19T12:50:44;102202.66;;;8.21;100.00
57056;BME280;42945;51.718;5.324;2023-02-19T12:56:43;102212.47;;;8.16;100.00
57056;BME280;42945;51.718;5.324;2023-02-19T13:08:51;102155.63;;;7.27;100.00
57056;BME280;42945;51.718;5.324;2023-02-19T13:14:45;102207.91;;;7.51;100.00
57056;BME280;42945;51.718;5.324;2023-02-19T13:20:37;102268.00;;;7.38;100.00
57056;BME280;42945;51.718;5.324;2023-02-19T13:38:29;102246.91;;;7.36;100.00
57056;BME280;42945;51.718;5.324;2023-02-19T13:44:21;102251.88;;;7.50;100.00
57056;BME280;42945;51.718;5.324;2023-02-19T13:50:39;102312.16;;;7.29;100.00
57056;BME280;42945;51.718;5.324;2023-02-19T14:02:29;102349.38;;;7.59;100.00
57056;BME280;42945;51.718;5.324;2023-02-19T14:09:36;102320.88;;;7.33;100.00
57056;BME280;42945;51.718;5.324;2023-02-19T14:14:55;102333.13;;;7.37;100.00
57056;BME280;42945;51.718;5.324;2023-02-19T14:20:44;102329.94;;;7.21;100.00
57056;BME280;42945;51.718;5.324;2023-02-19T14:26:33;102275.75;;;6.55;100.00
57056;BME280;42945;51.718;5.324;2023-02-19T14:32:22;102379.28;;;7.15;100.00
57056;BME280;42945;51.718;5.324;2023-02-19T14:38:17;102457.88;;;7.91;100.00
57056;BME280;42945;51.718;5.324;2023-02-19T14:44:15;102335.44;;;7.07;100.00
57056;BME280;42945;51.718;5.324;2023-02-19T14:50:12;102343.44;;;7.03;100.00
57056;BME280;42945;51.718;5.324;2023-02-19T14:56:02;102492.50;;;7.77;100.00
57056;BME280;42945;51.718;5.324;2023-02-19T15:02:12;102309.16;;;7.03;100.00
57056;BME280;42945;51.718;5.324;2023-02-19T15:08:02;102334.03;;;6.89;100.00
57056;BME280;42945;51.718;5.324;2023-02-19T15:13:56;102328.53;;;7.02;100.00
57056;BME280;42945;51.718;5.324;2023-02-19T15:19:46;102275.19;;;6.86;100.00
57056;BME280;42945;51.718;5.324;2023-02-19T15:25:37;102313.31;;;6.68;100.00
57056;BME280;42945;51.718;5.324;2023-02-19T15:31:25;102312.38;;;6.70;100.00
57056;BME280;42945;51.718;5.324;2023-02-19T15:37:13;102354.56;;;6.70;100.00
57056;BME280;42945;51.718;5.324;2023-02-19T15:43:01;102357.28;;;6.66;100.00
57056;BME280;42945;51.718;5.324;2023-02-19T15:55:07;102374.28;;;6.48;100.00
57056;BME280;42945;51.718;5.324;2023-02-19T16:07:26;102334.16;;;6.32;100.00
57056;BME280;42945;51.718;5.324;2023-02-19T16:13:29;102235.81;;;5.72;100.00
57056;BME280;42945;51.718;5.324;2023-02-19T16:19:26;102399.06;;;6.36;100.00
57056;BME280;42945;51.718;5.324;2023-02-19T16:25:26;102450.84;;;6.40;100.00
57056;BME280;42945;51.718;5.324;2023-02-19T16:31:16;102466.84;;;6.25;100.00
57056;BME280;42945;51.718;5.324;2023-02-19T16:37:32;102427.47;;;6.16;100.00
57056;BME280;42945;51.718;5.324;2023-02-19T16:43:29;102312.56;;;5.39;100.00
57056;BME280;42945;51.718;5.324;2023-02-19T16:49:18;102404.00;;;5.94;100.00
57056;BME280;42945;51.718;5.324;2023-02-19T16:55:11;102479.25;;;6.17;100.00
57056;BME280;42945;51.718;5.324;2023-02-19T17:01:01;102213.34;;;4.80;100.00
57056;BME280;42945;51.718;5.324;2023-02-19T17:06:49;102409.28;;;5.97;100.00
57056;BME280;42945;51.718;5.324;2023-02-19T17:12:37;102360.88;;;5.33;100.00
57056;BME280;42945;51.718;5.324;2023-02-19T17:18:27;102519.72;;;6.11;100.00
57056;BME280;42945;51.718;5.324;2023-02-19T17:28:05;102532.53;;;6.42;100.00
57056;BME280;42945;51.718;5.324;2023-02-19T17:33:53;102456.94;;;5.72;100.00
57056;BME280;42945;51.718;5.324;2023-02-19T17:39:41;102371.38;;;5.35;100.00
57056;BME280;42945;51.718;5.324;2023-02-19T17:45:29;102476.38;;;5.59;100.00
57056;BME280;42945;51.718;5.324;2023-02-19T17:51:18;102480.56;;;5.77;100.00
57056;BME280;42945;51.718;5.324;2023-02-19T17:57:06;102466.53;;;5.80;100.00
57056;BME280;42945;51.718;5.324;2023-02-19T18:02:55;102478.09;;;5.65;100.00
57056;BME280;42945;51.718;5.324;2023-02-19T18:08:51;102536.72;;;5.78;100.00
57056;BME280;42945;51.718;5.324;2023-02-19T18:14:39;102550.06;;;5.62;100.00
57056;BME280;42945;51.718;5.324;2023-02-19T18:20:28;102776.56;;;5.33;100.00
57056;BME280;42945;51.718;5.324;2023-02-19T18:30:14;102394.19;;;4.38;100.00
57056;BME280;42945;51.718;5.324;2023-02-19T18:36:09;102519.91;;;4.95;100.00
57056;BME280;42945;51.718;5.324;2023-02-19T18:41:57;102478.00;;;4.75;100.00
57056;BME280;42945;51.718;5.324;2023-02-19T18:47:48;102465.84;;;4.57;100.00
57056;BME280;42945;51.718;5.324;2023-02-19T18:53:36;102527.97;;;4.69;100.00
57056;BME280;42945;51.718;5.324;2023-02-19T18:59:25;102510.56;;;4.51;100.00
57056;BME280;42945;51.718;5.324;2023-02-19T19:05:16;102499.25;;;4.35;100.00
57056;BME280;42945;51.718;5.324;2023-02-19T19:11:05;102501.03;;;4.30;100.00
57056;BME280;42945;51.718;5.324;2023-02-19T19:16:54;102454.66;;;4.27;100.00
57056;BME280;42945;51.718;5.324;2023-02-19T19:22:43;102412.91;;;3.67;100.00
57056;BME280;42945;51.718;5.324;2023-02-19T19:32:31;102518.59;;;4.23;100.00
57056;BME280;42945;51.718;5.324;2023-02-19T19:38:18;102503.75;;;4.13;100.00
57056;BME280;42945;51.718;5.324;2023-02-19T19:44:07;102588.63;;;4.20;100.00
57056;BME280;42945;51.718;5.324;2023-02-19T19:49:56;102389.44;;;3.32;100.00
57056;BME280;42945;51.718;5.324;2023-02-19T19:55:45;102560.63;;;4.11;100.00
57056;BME280;42945;51.718;5.324;2023-02-19T20:01:32;102496.75;;;4.13;100.00
57056;BME280;42945;51.718;5.324;2023-02-19T20:07:22;102488.03;;;4.04;100.00
57056;BME280;42945;51.718;5.324;2023-02-19T20:13:09;102419.13;;;3.42;100.00
57056;BME280;42945;51.718;5.324;2023-02-19T20:18:57;102544.91;;;4.06;100.00
57056;BME280;42945;51.718;5.324;2023-02-19T20:24:53;102617.44;;;4.44;100.00
57056;BME280;42945;51.718;5.324;2023-02-19T20:34:36;102415.53;;;3.70;100.00
57056;BME280;42945;51.718;5.324;2023-02-19T20:40:25;102518.75;;;3.59;100.00
57056;BME280;42945;51.718;5.324;2023-02-19T20:46:17;102350.19;;;2.90;100.00
57056;BME280;42945;51.718;5.324;2023-02-19T20:52:06;102449.72;;;3.47;100.00
57056;BME280;42945;51.718;5.324;2023-02-19T20:57:54;102452.34;;;3.47;100.00
57056;BME280;42945;51.718;5.324;2023-02-19T21:03:42;102481.16;;;3.58;100.00
57056;BME280;42945;51.718;5.324;2023-02-19T21:09:30;102507.44;;;3.21;100.00
57056;BME280;42945;51.718;5.324;2023-02-19T21:15:18;102502.16;;;3.52;100.00
57056;BME280;42945;51.718;5.324;2023-02-19T21:21:06;102533.63;;;3.43;100.00
57056;BME280;42945;51.718;5.324;2023-02-19T21:26:53;102560.75;;;3.40;100.00
57056;BME280;42945;51.718;5.324;2023-02-19T21:36:35;102576.41;;;4.05;100.00
57056;BME280;42945;51.718;5.324;2023-02-19T21:42:24;102459.38;;;3.30;100.00
57056;BME280;42945;51.718;5.324;2023-02-19T21:48:11;102452.38;;;3.32;100.00
57056;BME280;42945;51.718;5.324;2023-02-19T21:54:18;102354.56;;;2.65;100.00
57056;BME280;42945;51.718;5.324;2023-02-19T22:00:08;102507.41;;;3.27;100.00
57056;BME280;42945;51.718;5.324;2023-02-19T22:06:00;102626.31;;;4.03;100.00
57056;BME280;42945;51.718;5.324;2023-02-19T22:11:48;102517.94;;;3.24;100.00
57056;BME280;42945;51.718;5.324;2023-02-19T22:17:36;102509.19;;;3.16;100.00
57056;BME280;42945;51.718;5.324;2023-02-19T22:23:24;102538.88;;;3.13;100.00
57056;BME280;42945;51.718;5.324;2023-02-19T22:29:13;102364.19;;;2.49;100.00
57056;BME280;42945;51.718;5.324;2023-02-19T22:38:50;102372.91;;;2.45;100.00
57056;BME280;42945;51.718;5.324;2023-02-19T22:44:41;102361.56;;;2.45;100.00
57056;BME280;42945;51.718;5.324;2023-02-19T22:50:29;102815.03;;;3.14;100.00
57056;BME280;42945;51.718;5.324;2023-02-19T22:56:18;102534.53;;;3.26;100.00
57056;BME280;42945;51.718;5.324;2023-02-19T23:02:07;102428.78;;;3.15;100.00
57056;BME280;42945;51.718;5.324;2023-02-19T23:07:54;102457.63;;;3.23;100.00
57056;BME280;42945;51.718;5.324;2023-02-19T23:13:42;102484.72;;;3.35;100.00
57056;BME280;42945;51.718;5.324;2023-02-19T23:19:30;102443.59;;;3.39;100.00
57056;BME280;42945;51.718;5.324;2023-02-19T23:25:19;102344.97;;;2.70;100.00
57056;BME280;42945;51.718;5.324;2023-02-19T23:31:08;102468.72;;;4.11;100.00
57056;BME280;42945;51.718;5.324;2023-02-19T23:40:51;102398.06;;;3.62;100.00
57056;BME280;42945;51.718;5.324;2023-02-19T23:46:40;102399.78;;;3.72;100.00
57056;BME280;42945;51.718;5.324;2023-02-19T23:52:28;102495.69;;;4.48;100.00
57056;BME280;42945;51.718;5.324;2023-02-19T23:58:17;102393.59;;;3.84;100.00
